Time;durP1;ratioP1;P1;durP2;ratioP2;P2;SDS_P1;SDS_P2;PMS_P1;PMS_P2;Temp;Humidity;BMP_temperature;BMP_pressure;BME280_temperature;BME280_humidity;BME280_pressure;Samples;Min_cycle;Max_cycle;Signal;HPM_P1;HPM_P2
2023/12/19 00:01:48;;;;;;;20.02;9.95;;;;;;;8.09;58.89;99195.84;4335895;33;20453;-83
2023/12/19 00:04:15;;;;;;;20.33;9.45;;;;;;;7.66;59.88;99193.00;4335530;33;20113;-83
2023/12/19 00:06:42;;;;;;;21.48;10.07;;;;;;;7.12;62.07;99185.06;4335631;33;20115;-83
2023/12/19 00:09:09;;;;;;;20.60;10.70;;;;;;;6.84;63.96;99189.62;4335801;33;20103;-83
2023/12/19 00:11:35;;;;;;;;;;;;;;;6.70;64.46;99194.91;4335755;33;20157;-83
2023/12/19 00:14:02;;;;;;;24.58;10.85;;;;;;;7.84;59.62;99191.03;4335700;33;19993;-83
2023/12/19 00:16:29;;;;;;;25.08;11.57;;;;;;;8.00;58.81;99189.09;4335448;33;20490;-83
2023/12/19 00:18:56;;;;;;;;;;;;;;;8.17;58.62;99195.72;4335690;33;20156;-83
2023/12/19 00:21:23;;;;;;;24.63;11.75;;;;;;;8.08;59.49;99188.97;4335631;33;19984;-83
2023/12/19 00:23:50;;;;;;;;;;;;;;;8.27;59.08;99194.69;4335992;33;20106;-83
2023/12/19 00:26:16;;;;;;;22.85;10.77;;;;;;;8.32;58.72;99204.06;4335232;33;20283;-83
2023/12/19 00:28:44;;;;;;;18.02;8.98;;;;;;;7.94;60.07;99194.31;4335347;33;20175;-83
2023/12/19 00:31:21;;;;;;;19.70;9.48;;;;;;;7.85;59.86;99191.88;4335652;33;20138;-83
2023/12/19 00:33:48;;;;;;;16.45;7.93;;;;;;;8.45;57.82;99202.16;4335415;33;20083;-83
2023/12/19 00:36:22;;;;;;;18.67;8.13;;;;;;;8.81;55.85;99200.69;4335495;33;20108;-83
2023/12/19 00:38:50;;;;;;;17.73;7.45;;;;;;;8.37;56.20;99194.56;4335345;33;20116;-83
2023/12/19 00:41:17;;;;;;;19.90;8.70;;;;;;;8.05;56.98;99194.16;4335575;33;20158;-83
2023/12/19 00:43:44;;;;;;;16.83;7.12;;;;;;;7.66;57.84;99186.16;4322365;33;20427;-83
2023/12/19 00:46:12;;;;;;;18.48;8.10;;;;;;;6.81;60.48;99192.25;4335087;33;20114;-83
2023/12/19 00:48:39;;;;;;;19.65;9.13;;;;;;;6.60;63.88;99201.81;4335603;33;20100;-83
2023/12/19 00:51:13;;;;;;;23.50;10.77;;;;;;;6.62;64.79;99191.53;4335480;33;20096;-83
2023/12/19 00:53:41;;;;;;;22.27;9.95;;;;;;;6.73;65.36;99197.44;4335368;33;20167;-83
2023/12/19 00:56:14;;;;;;;21.08;10.10;;;;;;;6.99;64.12;99194.59;4335338;33;20111;-83
2023/12/19 00:58:43;;;;;;;21.10;9.82;;;;;;;7.17;62.35;99193.56;4335516;33;20167;-83
2023/12/19 01:01:10;;;;;;;21.33;9.82;;;;;;;6.89;64.13;99187.84;4335132;33;20088;-83
2023/12/19 01:03:37;;;;;;;21.52;9.95;;;;;;;6.84;64.94;99187.06;4335415;33;20083;-83
2023/12/19 01:06:05;;;;;;;21.55;9.48;;;;;;;6.58;67.25;99188.13;4335339;33;20134;-83
2023/12/19 01:08:32;;;;;;;18.77;9.50;;;;;;;7.15;65.59;99185.87;4335101;33;20103;-83
2023/12/19 01:10:59;;;;;;;17.05;8.38;;;;;;;7.18;65.14;99192.69;4335365;33;20092;-83
2023/12/19 01:13:26;;;;;;;;;;;;;;;7.98;62.15;99190.00;4335655;33;20163;-83
2023/12/19 01:15:53;;;;;;;19.25;8.93;;;;;;;8.08;61.43;99184.72;4335227;33;19995;-83
2023/12/19 01:18:20;;;;;;;20.90;9.15;;;;;;;8.09;61.01;99190.69;4335475;33;20470;-83
2023/12/19 01:20:47;;;;;;;18.48;8.20;;;;;;;8.85;57.70;99183.50;4334926;33;20096;-82
2023/12/19 01:23:15;;;;;;;17.37;8.50;;;;;;;8.80;56.78;99185.28;4335276;33;20083;-83
2023/12/19 01:25:42;;;;;;;16.35;8.30;;;;;;;8.53;56.69;99177.19;4346293;33;20104;-83
2023/12/19 01:28:10;;;;;;;20.83;8.65;;;;;;;8.40;56.90;99175.69;4335090;33;20496;-83
2023/12/19 01:30:39;;;;;;;17.67;8.52;;;;;;;8.09;57.13;99168.41;4334877;33;20470;-83
2023/12/19 01:33:08;;;;;;;17.33;7.87;;;;;;;8.10;56.69;99171.84;4335302;33;20159;-83
2023/12/19 01:35:36;;;;;;;18.05;7.85;;;;;;;8.04;56.83;99174.47;4334801;33;20114;-83
2023/12/19 01:38:03;;;;;;;14.50;6.32;;;;;;;7.84;57.77;99167.91;4335059;33;20715;-83
2023/12/19 01:40:31;;;;;;;17.20;7.78;;;;;;;8.20;56.77;99177.69;4345854;33;20499;-83
2023/12/19 01:42:59;;;;;;;17.95;6.75;;;;;;;8.35;56.18;99177.47;4334804;33;20423;-83
2023/12/19 01:45:27;;;;;;;16.98;7.40;;;;;;;8.33;56.01;99180.03;4335065;33;20357;-83
2023/12/19 01:47:54;;;;;;;15.15;6.45;;;;;;;8.66;55.25;99170.09;4335162;33;20554;-83
2023/12/19 01:50:22;;;;;;;12.85;5.55;;;;;;;9.17;53.69;99170.03;4321509;33;20102;-83
2023/12/19 01:52:51;;;;;;;16.50;7.43;;;;;;;8.63;55.47;99168.44;4335152;33;20134;-83
2023/12/19 01:55:19;;;;;;;15.93;6.80;;;;;;;8.66;55.67;99170.94;4345999;33;20103;-83
2023/12/19 01:57:47;;;;;;;15.32;6.95;;;;;;;8.56;55.17;99171.13;4334838;33;20108;-83
2023/12/19 02:00:14;;;;;;;16.85;7.28;;;;;;;8.92;54.50;99167.06;4345808;32;20412;-83
2023/12/19 02:02:42;;;;;;;15.82;7.75;;;;;;;8.40;56.17;99161.09;4334640;33;20080;-82
2023/12/19 02:05:10;;;;;;;16.73;7.68;;;;;;;8.17;56.03;99157.16;4321713;33;20158;-83
2023/12/19 02:07:37;;;;;;;17.87;8.13;;;;;;;8.18;56.32;99161.41;4334986;33;20114;-83
2023/12/19 02:10:04;;;;;;;15.15;7.93;;;;;;;7.48;58.80;99150.41;4334582;33;20096;-83
2023/12/19 02:12:31;;;;;;;16.42;7.00;;;;;;;7.81;59.15;99149.97;4334974;33;20122;-83
2023/12/19 02:14:58;;;;;;;16.00;7.00;;;;;;;7.76;59.51;99143.19;4334820;33;20440;-83
2023/12/19 02:17:25;;;;;;;;;;;;;;;7.83;60.17;99144.78;4334713;33;20095;-83
2023/12/19 02:19:55;;;;;;;19.25;9.23;;;;;;;7.67;60.78;99139.03;4334790;33;20070;-83
2023/12/19 02:22:21;;;;;;;22.17;9.85;;;;;;;7.43;60.11;99139.34;4334778;33;20503;-83
2023/12/19 02:24:48;;;;;;;;;;;;;;;7.82;58.42;99133.66;4334611;33;20099;-83
2023/12/19 02:27:21;;;;;;;23.30;10.48;;;;;;;7.95;57.32;99131.75;4334882;33;19987;-83
2023/12/19 02:29:47;;;;;;;21.30;9.00;;;;;;;7.57;59.00;99131.47;4345335;33;20084;-83
2023/12/19 02:32:14;;;;;;;22.15;9.45;;;;;;;7.73;57.77;99118.38;4334266;33;20072;-83
2023/12/19 02:34:41;;;;;;;;;;;;;;;7.32;57.87;99113.81;4334944;33;20091;-83
2023/12/19 02:37:08;;;;;;;35.22;15.50;;;;;;;6.74;61.40;99111.91;4334574;33;19979;-83
2023/12/19 02:39:35;;;;;;;39.78;16.65;;;;;;;6.65;63.46;99117.13;4334037;33;20153;-83
2023/12/19 02:42:02;;;;;;;;;;;;;;;7.39;60.31;99107.72;4334844;33;20087;-83
2023/12/19 02:44:28;;;;;;;32.28;13.73;;;;;;;7.35;59.71;99106.09;4334632;33;20043;-83
2023/12/19 02:46:55;;;;;;;37.53;15.90;;;;;;;8.10;56.59;99110.13;4334028;33;20144;-83
2023/12/19 02:49:22;;;;;;;;;;;;;;;8.09;57.01;99111.00;4334743;33;20087;-83
2023/12/19 02:51:49;;;;;;;28.30;10.57;;;;;;;8.06;56.36;99111.03;4335421;33;19971;-82
2023/12/19 02:54:16;;;;;;;20.37;8.05;;;;;;;7.14;58.00;99088.38;4336305;33;20108;-83
2023/12/19 02:56:42;;;;;;;;;;;;;;;8.00;56.52;99094.00;4336500;33;20134;-83
2023/12/19 02:59:09;;;;;;;16.12;7.12;;;;;;;7.49;57.21;99090.47;4335980;33;20035;-83
2023/12/19 03:01:36;;;;;;;;;;;;;;;7.73;56.41;99082.41;4336497;33;20095;-83
2023/12/19 03:04:03;;;;;;;17.60;7.12;;;;;;;7.60;56.66;99085.19;4336339;33;19975;-83
2023/12/19 03:06:30;;;;;;;20.15;8.70;;;;;;;7.53;56.99;99081.84;4335896;33;20131;-83
2023/12/19 03:08:57;;;;;;;17.05;6.53;;;;;;;6.86;58.63;99081.00;4336163;33;20469;-83
2023/12/19 03:11:24;;;;;;;;;;;;;;;6.41;61.43;99074.66;4336566;33;20404;-84
2023/12/19 03:13:51;;;;;;;12.88;4.60;;;;;;;7.45;59.30;99076.84;4335898;33;20036;-83
2023/12/19 03:16:18;;;;;;;;;;;;;;;7.36;59.28;99079.53;4336301;33;20459;-83
2023/12/19 03:18:44;;;;;;;16.58;6.47;;;;;;;6.91;61.24;99066.41;4336255;33;19989;-83
2023/12/19 03:21:11;;;;;;;19.52;6.90;;;;;;;6.92;61.23;99062.13;4335666;33;20349;-83
2023/12/19 03:23:38;;;;;;;;;;;;;;;6.45;62.43;99067.75;4336500;33;20439;-83
2023/12/19 03:26:05;;;;;;;13.45;5.70;;;;;;;6.63;62.68;99075.28;4336009;33;20331;-84
2023/12/19 03:28:35;;;;;;;14.95;6.37;;;;;;;6.67;63.44;99074.38;4335780;33;20586;-83
2023/12/19 03:31:02;;;;;;;19.08;8.02;;;;;;;7.15;62.39;99078.09;4335875;33;20091;-83
2023/12/19 03:33:29;;;;;;;24.55;8.75;;;;;;;8.00;59.40;99082.88;4335978;33;20087;-83
2023/12/19 03:35:56;;;;;;;;;;;;;;;7.63;60.87;99078.28;4335751;33;20099;-83
2023/12/19 03:38:22;;;;;;;20.50;8.18;;;;;;;7.65;60.96;99084.25;4336162;33;20035;-84
2023/12/19 03:40:49;;;;;;;;;;;;;;;8.25;59.37;99084.16;4336248;33;20083;-84
2023/12/19 03:43:16;;;;;;;28.87;12.43;;;;;;;8.75;55.32;99081.63;4335689;33;20335;-84
2023/12/19 03:45:43;;;;;;;31.67;13.18;;;;;;;8.09;56.41;99080.16;4335866;33;20111;-83
2023/12/19 03:48:10;;;;;;;68.03;22.83;;;;;;;8.05;56.06;99073.38;4335774;33;20083;-83
2023/12/19 03:50:37;;;;;;;40.40;15.25;;;;;;;7.09;57.51;99072.19;4335861;33;20147;-83
2023/12/19 03:53:04;;;;;;;;;;;;;;;6.88;60.37;99065.59;4336215;33;20466;-83
2023/12/19 03:55:30;;;;;;;37.40;14.57;;;;;;;7.83;57.66;99070.28;4335490;33;20030;-84
2023/12/19 03:57:57;;;;;;;;;;;;;;;7.81;57.57;99074.59;4336122;33;20431;-83
2023/12/19 04:00:24;;;;;;;58.40;23.30;;;;;;;7.07;59.40;99066.22;4335808;33;19982;-83
2023/12/19 04:02:51;;;;;;;102.35;35.78;;;;;;;7.89;55.89;99064.22;4335180;33;20470;-83
2023/12/19 04:05:18;;;;;;;105.25;36.72;;;;;;;6.79;57.90;99052.84;4335876;33;20436;-83
2023/12/19 04:07:45;;;;;;;102.00;37.13;;;;;;;6.76;58.08;99063.16;4335790;33;20102;-83
2023/12/19 04:10:11;;;;;;;;;;;;;;;7.03;56.56;99060.28;4335527;33;20510;-83
2023/12/19 04:12:38;;;;;;;88.47;33.80;;;;;;;6.76;56.91;99064.00;4335859;33;19979;-83
2023/12/19 04:15:05;;;;;;;34.28;14.68;;;;;;;6.91;57.33;99062.97;4346864;33;20126;-83
2023/12/19 04:17:33;;;;;;;15.93;5.32;;;;;;;6.53;58.27;99053.16;4335321;33;20087;-83
2023/12/19 04:19:59;;;;;;;18.05;6.30;;;;;;;6.22;60.42;99055.16;4335570;33;20073;-83
2023/12/19 04:22:26;;;;;;;15.23;5.20;;;;;;;6.66;60.05;99041.91;4335743;33;20155;-84
2023/12/19 04:24:53;;;;;;;;;;;;;;;6.13;62.34;99053.53;4335740;33;20110;-83
2023/12/19 04:27:20;;;;;;;16.70;5.95;;;;;;;6.46;61.88;99049.78;4335791;33;20644;-83
2023/12/19 04:29:47;;;;;;;;;;;;;;;7.33;58.02;99046.19;4335586;33;20067;-83
2023/12/19 04:32:14;;;;;;;14.35;5.43;;;;;;;6.62;59.60;99041.09;4335354;33;19971;-83
2023/12/19 04:34:41;;;;;;;15.60;6.20;;;;;;;6.77;59.36;99036.66;4335600;33;20553;-83
2023/12/19 04:37:08;;;;;;;35.72;12.82;;;;;;;6.74;59.67;99045.22;4335313;33;20158;-83
2023/12/19 04:39:35;;;;;;;26.55;9.27;;;;;;;6.14;61.33;99044.12;4335571;33;20461;-84
2023/12/19 04:42:06;;;;;;;15.23;5.65;;;;;;;6.08;61.87;99045.91;4335635;33;20108;-84
2023/12/19 04:44:34;;;;;;;14.93;5.35;;;;;;;6.78;59.62;99048.59;4335368;33;20092;-83
2023/12/19 04:47:01;;;;;;;24.70;8.65;;;;;;;6.97;58.94;99047.50;4335473;33;20423;-83
2023/12/19 04:49:28;;;;;;;11.65;4.20;;;;;;;7.11;58.07;99048.19;4335552;33;20103;-83
2023/12/19 04:51:55;;;;;;;10.75;3.58;;;;;;;6.49;59.85;99044.66;4335190;33;20118;-83
2023/12/19 04:54:22;;;;;;;;;;;;;;;6.76;59.79;99042.66;4335850;33;20104;-83
2023/12/19 04:56:50;;;;;;;10.98;4.25;;;;;;;6.34;60.50;99039.66;4335374;33;20370;-83
2023/12/19 04:59:17;;;;;;;10.93;3.50;;;;;;;7.13;58.29;99040.50;4335084;33;20435;-83
2023/12/19 05:01:44;;;;;;;8.73;3.25;;;;;;;7.28;57.62;99042.00;4335301;33;20103;-83
2023/12/19 05:04:11;;;;;;;9.77;3.42;;;;;;;6.71;59.10;99044.44;4335472;33;20110;-83
2023/12/19 05:06:38;;;;;;;6.45;2.28;;;;;;;7.20;57.90;99044.66;4334979;33;20106;-83
2023/12/19 05:09:05;;;;;;;5.80;2.20;;;;;;;7.45;56.78;99046.03;4335447;33;20087;-83
2023/12/19 05:11:32;;;;;;;9.95;3.12;;;;;;;6.97;58.28;99050.09;4322208;33;20179;-83
2023/12/19 05:13:58;;;;;;;8.48;3.22;;;;;;;7.41;57.09;99048.66;4334076;33;20114;-83
2023/12/19 05:16:25;;;;;;;;;;;;;;;5.71;61.76;99068.34;4335563;33;20456;-83
2023/12/19 05:18:52;;;;;;;23.40;9.18;;;;;;;4.31;71.54;99081.72;4335425;33;20038;-83
2023/12/19 05:21:21;;;;;;;25.35;10.85;;;;;;;3.15;79.83;99100.28;4334885;33;20159;-83
2023/12/19 05:23:48;;;;;;;23.15;9.27;;;;;;;4.98;71.13;99086.66;4335324;33;20103;-83
2023/12/19 05:26:14;;;;;;;;;;;;;;;5.98;66.93;99081.84;4335239;33;20091;-83
2023/12/19 05:28:41;;;;;;;36.30;15.82;;;;;;;6.79;62.03;99070.81;4335375;33;20014;-83
2023/12/19 05:31:09;;;;;;;;;;;;;;;6.62;61.89;99071.87;4335418;33;20099;-83
2023/12/19 05:33:36;;;;;;;49.38;21.55;;;;;;;6.92;61.40;99062.97;4335014;33;20070;-84
2023/12/19 05:36:04;;;;;;;51.70;21.60;;;;;;;5.91;65.06;99054.59;4335062;33;20105;-83
2023/12/19 05:38:34;;;;;;;45.20;18.70;;;;;;;5.77;65.04;99058.06;4335098;33;20138;-83
2023/12/19 05:41:02;;;;;;;44.95;20.23;;;;;;;6.18;64.28;99046.69;4334963;33;20092;-84
2023/12/19 05:43:29;;;;;;;50.95;24.58;;;;;;;6.66;62.87;99045.31;4335188;33;20104;-83
2023/12/19 05:45:55;;;;;;;;;;;;;;;6.64;64.74;99052.19;4335291;33;20440;-83
2023/12/19 05:48:23;;;;;;;37.78;17.25;;;;;;;6.72;64.97;99064.94;4334775;33;19967;-83
2023/12/19 05:50:51;;;;;;;37.08;14.63;;;;;;;5.93;68.65;99063.09;4335053;33;20487;-83
2023/12/19 05:53:18;;;;;;;17.65;8.18;;;;;;;5.19;66.46;99065.25;4334954;33;20092;-83
2023/12/19 05:55:44;;;;;;;;;;;;;;;4.40;66.92;99066.38;4335045;33;20104;-83
2023/12/19 05:58:11;;;;;;;22.92;9.13;;;;;;;5.27;62.85;99068.63;4335230;33;20030;-83
2023/12/19 06:00:38;;;;;;;;;;;;;;;5.39;63.15;99067.69;4335118;33;20114;-83
2023/12/19 06:03:05;;;;;;;24.92;9.40;;;;;;;5.81;61.29;99056.34;4334804;33;19983;-83
2023/12/19 06:05:32;;;;;;;22.10;8.80;;;;;;;5.14;65.81;99049.09;4334892;33;20440;-83
2023/12/19 06:08:00;;;;;;;21.73;9.63;;;;;;;5.95;65.21;99049.41;4334927;33;20075;-84
2023/12/19 06:10:27;;;;;;;21.70;9.93;;;;;;;6.90;59.32;99043.31;4334570;33;20092;-83
2023/12/19 06:12:54;;;;;;;21.75;10.07;;;;;;;6.66;58.80;99050.44;4334999;33;20095;-83
2023/12/19 06:15:21;;;;;;;28.55;12.32;;;;;;;6.02;60.03;99045.94;4334524;33;20092;-83
2023/12/19 06:17:49;;;;;;;;;;;;;;;6.14;59.81;99050.09;4335142;33;20075;-83
2023/12/19 06:20:16;;;;;;;20.58;8.63;;;;;;;5.81;62.17;99066.56;4334907;33;19984;-83
2023/12/19 06:22:43;;;;;;;;;;;;;;;4.88;65.43;99064.53;4334695;33;20461;-83
2023/12/19 06:25:10;;;;;;;13.27;5.45;;;;;;;3.93;69.86;99064.69;4334564;33;20303;-83
2023/12/19 06:27:37;;;;;;;14.52;5.40;;;;;;;5.38;64.84;99053.22;4334740;33;20084;-83
2023/12/19 06:30:05;;;;;;;15.05;5.78;;;;;;;6.07;62.40;99054.47;4334047;33;20091;-83
2023/12/19 06:32:48;;;;;;;20.33;8.82;;;;;;;6.66;58.97;99035.06;4334771;33;20095;-83
2023/12/19 06:35:15;;;;;;;23.38;10.40;;;;;;;6.87;57.21;99036.50;4334536;33;20114;-83
2023/12/19 06:37:42;;;;;;;25.12;10.43;;;;;;;6.95;56.49;99036.44;4334281;33;20451;-83
2023/12/19 06:40:09;;;;;;;29.80;14.27;;;;;;;6.73;56.83;99035.00;4334501;33;20107;-83
2023/12/19 06:42:36;;;;;;;24.33;10.80;;;;;;;6.33;58.12;99041.37;4345471;33;20164;-83
2023/12/19 06:45:04;;;;;;;22.73;10.80;;;;;;;6.33;58.88;99043.09;4334076;33;20477;-83
2023/12/19 06:47:31;;;;;;;24.00;10.63;;;;;;;6.05;59.04;99048.47;4334467;33;20122;-83
2023/12/19 06:49:58;;;;;;;;;;;;;;;6.56;57.96;99059.09;4334662;33;20130;-84
2023/12/19 06:52:25;;;;;;;21.00;8.43;;;;;;;6.68;57.10;99056.41;4334242;33;19979;-84
2023/12/19 06:54:51;;;;;;;;;;;;;;;6.33;57.91;99053.34;4334634;33;20457;-83
2023/12/19 06:57:18;;;;;;;22.70;10.40;;;;;;;6.49;58.62;99036.12;4334696;33;19985;-82
2023/12/19 06:59:45;;;;;;;29.10;13.95;;;;;;;7.28;55.33;99035.13;4333774;33;20095;-82
2023/12/19 07:02:12;;;;;;;32.72;15.88;;;;;;;7.22;54.27;99036.06;4334097;33;20617;-83
2023/12/19 07:04:39;;;;;;;38.20;17.52;;;;;;;6.42;57.05;99037.88;4333884;33;20106;-82
2023/12/19 07:07:06;;;;;;;32.65;14.45;;;;;;;7.19;56.47;99036.09;4334109;33;20363;-82
2023/12/19 07:09:33;;;;;;;;;;;;;;;7.61;58.24;99049.22;4334634;33;20103;-83
2023/12/19 07:12:00;;;;;;;36.75;16.77;;;;;;;8.14;59.18;99057.78;4334524;33;20027;-83
2023/12/19 07:14:28;;;;;;;31.65;15.52;;;;;;;8.96;57.40;99045.16;4335156;33;20154;-83
2023/12/19 07:16:55;;;;;;;22.27;9.95;;;;;;;9.77;54.56;99041.63;4334156;33;20091;-83
2023/12/19 07:19:23;;;;;;;31.33;15.40;;;;;;;10.29;50.84;99049.84;4321264;33;20122;-82
2023/12/19 07:21:50;;;;;;;21.92;9.70;;;;;;;11.39;47.93;99052.81;4334022;33;20116;-82
2023/12/19 07:24:17;;;;;;;22.33;10.98;;;;;;;12.11;46.17;99042.78;4336270;33;20079;-82
2023/12/19 07:26:44;;;;;;;21.15;11.85;;;;;;;12.99;44.77;99042.31;4334853;33;20087;-83
2023/12/19 07:29:11;;;;;;;18.73;9.27;;;;;;;13.64;43.44;99047.66;4344880;33;20127;-82
2023/12/19 07:31:38;;;;;;;22.33;11.95;;;;;;;13.82;41.16;99050.38;4335004;33;20151;-83
2023/12/19 07:34:06;;;;;;;21.12;9.70;;;;;;;10.41;47.20;99057.25;4334370;33;20051;-83
2023/12/19 07:36:34;;;;;;;19.75;9.65;;;;;;;9.66;50.06;99041.03;4334501;33;20080;-83
2023/12/19 07:39:01;;;;;;;22.42;11.27;;;;;;;11.96;44.93;99040.72;4335884;33;20111;-80
2023/12/19 07:41:28;;;;;;;20.35;9.13;;;;;;;13.14;42.70;99030.50;4335581;33;20087;-79
2023/12/19 07:43:55;;;;;;;20.40;9.18;;;;;;;12.84;42.09;99042.84;4335704;33;20106;-79
2023/12/19 07:46:22;;;;;;;18.02;9.10;;;;;;;13.73;40.79;99026.56;4335476;33;20364;-77
2023/12/19 07:48:49;;;;;;;22.02;9.65;;;;;;;13.90;40.50;99032.75;4335364;33;20107;-78
2023/12/19 07:51:23;;;;;;;19.60;9.10;;;;;;;13.45;41.44;99045.78;4335588;33;20117;-78
2023/12/19 07:53:54;;;;;;;13.90;6.85;;;;;;;12.74;43.48;99046.66;4346427;33;20179;-77
2023/12/19 07:56:21;;;;;;;14.13;6.57;;;;;;;12.92;43.14;99050.34;4335619;33;20083;-78
2023/12/19 07:58:48;;;;;;;16.25;7.32;;;;;;;14.27;40.17;99048.56;4335740;33;20099;-77
2023/12/19 08:01:16;;;;;;;;;;;;;;;15.10;38.63;99038.03;4346764;33;20166;-81
2023/12/19 08:03:43;;;;;;;;;;;;;;;15.49;37.55;99037.94;4336199;33;19985;-83
2023/12/19 08:06:11;;;;;;;18.05;8.10;;;;;;;15.88;37.26;99036.09;4335562;33;19971;-80
2023/12/19 08:08:38;;;;;;;16.50;7.07;;;;;;;16.25;36.75;99043.84;4335134;33;20732;-83
2023/12/19 08:11:05;;;;;;;15.40;7.20;;;;;;;15.58;37.17;99048.78;4322331;33;20111;-81
2023/12/19 08:13:34;;;;;;;15.75;7.30;;;;;;;15.93;36.71;99048.87;4335560;33;20092;-82
2023/12/19 08:16:02;;;;;;;15.45;7.20;;;;;;;16.12;36.31;99048.81;4335206;33;20106;-81
2023/12/19 08:18:29;;;;;;;16.98;7.35;;;;;;;16.60;35.92;99042.06;4335597;33;20103;-81
2023/12/19 08:20:56;;;;;;;17.83;8.95;;;;;;;16.98;35.59;99034.88;4335486;33;20159;-80
2023/12/19 08:23:23;;;;;;;25.33;11.98;;;;;;;17.16;35.26;99031.28;4335044;33;20408;-81
2023/12/19 08:25:50;;;;;;;29.87;14.82;;;;;;;17.66;34.62;99025.06;4335388;33;20079;-81
2023/12/19 08:28:17;;;;;;;44.92;20.70;;;;;;;17.82;34.33;99028.50;4335620;33;20103;-81
2023/12/19 08:30:43;;;;;;;27.08;14.68;;;;;;;17.83;34.66;99034.56;4334905;33;20452;-81
2023/12/19 08:33:10;;;;;;;26.27;13.50;;;;;;;18.27;33.98;99028.56;4335310;33;20155;-80
2023/12/19 08:35:37;;;;;;;28.52;13.90;;;;;;;18.98;32.67;99029.50;4335059;33;20080;-80
2023/12/19 08:38:05;;;;;;;28.75;13.70;;;;;;;19.05;32.06;99024.75;4335429;33;20117;-81
2023/12/19 08:40:32;;;;;;;27.65;14.82;;;;;;;16.31;35.70;99022.72;4335422;33;20151;-83
2023/12/19 08:42:59;;;;;;;27.05;13.45;;;;;;;16.27;36.69;99029.84;4335034;33;20083;-82
2023/12/19 08:45:29;;;;;;;28.62;13.15;;;;;;;17.19;35.62;99028.50;4335267;33;20602;-83
2023/12/19 08:47:56;;;;;;;25.58;13.52;;;;;;;16.70;36.57;99027.69;4334759;33;20103;-85
2023/12/19 08:50:23;;;;;;;32.42;16.12;;;;;;;17.36;35.69;99011.94;4334595;33;20459;-84
2023/12/19 08:52:51;;;;;;;30.65;14.80;;;;;;;17.08;35.63;99014.38;4335420;33;20088;-85
2023/12/19 08:55:18;;;;;;;34.95;18.08;;;;;;;16.72;36.77;99004.97;4335378;33;20091;-83
2023/12/19 08:57:45;;;;;;;35.08;20.33;;;;;;;16.58;37.34;98997.00;4335108;33;20103;-84
2023/12/19 09:00:16;;;;;;;36.53;19.83;;;;;;;15.41;39.11;99003.66;4335299;33;20104;-83
2023/12/19 09:02:44;;;;;;;42.58;25.48;;;;;;;16.77;37.90;99001.19;4335294;33;20103;-84
2023/12/19 09:05:12;;;;;;;33.05;18.98;;;;;;;17.39;36.85;99010.94;4345875;33;20115;-82
2023/12/19 09:07:40;;;;;;;26.60;15.65;;;;;;;17.03;36.98;99012.88;4335642;33;20167;-83
2023/12/19 09:10:07;;;;;;;27.60;14.68;;;;;;;14.93;40.51;99025.81;4335346;33;20115;-82
2023/12/19 09:12:36;;;;;;;26.85;14.63;;;;;;;17.24;37.35;99023.06;4321708;33;20590;-83
2023/12/19 09:15:03;;;;;;;26.48;13.88;;;;;;;17.85;36.19;99012.66;4335119;33;20087;-84
2023/12/19 09:17:30;;;;;;;26.77;14.10;;;;;;;17.79;35.94;99007.81;4346391;33;20127;-82
2023/12/19 09:19:58;;;;;;;26.77;13.85;;;;;;;18.60;34.65;99003.03;4334847;33;20121;-81
2023/12/19 09:22:26;;;;;;;24.95;13.40;;;;;;;18.16;35.39;99001.28;4335147;33;20458;-81
2023/12/19 09:24:53;;;;;;;24.35;13.62;;;;;;;18.65;35.43;98995.81;4334802;33;20118;-81
2023/12/19 09:27:20;;;;;;;23.92;12.73;;;;;;;19.36;34.81;99002.75;4335271;33;20150;-80
2023/12/19 09:29:47;;;;;;;24.15;12.55;;;;;;;20.40;33.06;99002.00;4334728;33;20107;-80
2023/12/19 09:32:15;;;;;;;25.40;14.50;;;;;;;20.69;32.62;98999.19;4334840;33;20088;-82
2023/12/19 09:34:42;;;;;;;21.35;11.98;;;;;;;19.86;33.36;98996.88;4335131;33;20095;-82
2023/12/19 09:37:08;;;;;;;19.62;10.60;;;;;;;20.64;32.50;98990.81;4335127;33;20110;-84
2023/12/19 09:39:35;;;;;;;21.17;12.05;;;;;;;21.17;31.37;98981.81;4334785;33;20095;-84
2023/12/19 09:42:03;;;;;;;22.98;12.07;;;;;;;21.07;31.89;98973.75;4346144;33;20094;-83
2023/12/19 09:44:30;;;;;;;20.52;10.60;;;;;;;21.07;32.33;98979.00;4335166;33;20151;-83
2023/12/19 09:46:56;;;;;;;17.67;10.02;;;;;;;21.03;32.09;98968.81;4334635;33;20091;-84
2023/12/19 09:49:25;;;;;;;21.52;11.00;;;;;;;20.73;32.39;98958.69;4336788;33;20176;-84
2023/12/19 09:51:53;;;;;;;19.27;11.12;;;;;;;21.58;31.25;98960.47;4334992;33;20155;-83
2023/12/19 09:54:21;;;;;;;20.42;11.95;;;;;;;21.18;31.65;98954.63;4334510;33;20117;-84
2023/12/19 09:56:49;;;;;;;22.10;11.73;;;;;;;20.94;32.58;98944.06;4345902;33;20443;-84
2023/12/19 09:59:20;;;;;;;22.20;12.52;;;;;;;22.32;30.63;98947.09;4334421;33;20411;-85
2023/12/19 10:01:48;;;;;;;22.55;12.48;;;;;;;22.81;30.25;98944.97;4334644;33;20150;-84
2023/12/19 10:04:16;;;;;;;23.50;13.02;;;;;;;23.25;29.83;98939.78;4334855;33;20106;-85
2023/12/19 10:06:56;;;;;;;20.48;12.18;;;;;;;23.42;29.50;98939.25;4334886;33;20148;-84
2023/12/19 10:09:23;;;;;;;21.95;13.23;;;;;;;21.16;32.26;98927.66;4334847;33;20139;-85
2023/12/19 10:12:04;;;;;;;20.98;12.65;;;;;;;19.54;34.43;98927.41;4334884;33;20155;-81
2023/12/19 10:14:33;;;;;;;18.73;11.30;;;;;;;21.61;31.62;98923.50;4334513;33;20103;-82
2023/12/19 10:17:01;;;;;;;18.20;10.65;;;;;;;21.60;32.16;98913.94;4334742;33;20091;-82
2023/12/19 10:19:28;;;;;;;20.98;11.30;;;;;;;21.61;32.16;98907.72;4334460;33;20099;-82
2023/12/19 10:22:09;;;;;;;23.12;12.40;;;;;;;22.62;30.68;98897.38;4334305;33;20150;-82
2023/12/19 10:24:36;;;;;;;25.40;16.73;;;;;;;23.06;29.83;98891.25;4334821;33;20147;-83
2023/12/19 10:27:08;;;;;;;28.87;18.48;;;;;;;21.87;31.88;98882.13;4334541;33;20121;-85
2023/12/19 10:29:38;;;;;;;31.33;18.90;;;;;;;21.32;32.60;98877.53;4363152;27;20110;-82
2023/12/19 10:32:22;;;;;;;30.55;19.62;;;;;;;21.70;32.24;98864.19;4409309;32;20167;-82
2023/12/19 10:34:58;;;;;;;32.45;18.83;;;;;;;22.69;30.49;98860.91;4409290;32;20097;-81
2023/12/19 10:37:27;;;;;;;24.50;15.23;;;;;;;22.66;30.46;98862.00;4409158;32;20144;-82
2023/12/19 10:40:09;;;;;;;23.80;15.38;;;;;;;21.83;31.83;98848.34;4408999;32;20607;-83
2023/12/19 10:42:37;;;;;;;22.65;13.93;;;;;;;22.43;31.14;98834.03;4408651;32;20105;-83
2023/12/19 10:45:05;;;;;;;22.95;14.98;;;;;;;22.34;31.26;98838.25;4408857;32;20525;-83
2023/12/19 10:47:32;;;;;;;25.98;15.18;;;;;;;21.18;32.94;98831.28;4409089;32;20202;-83
2023/12/19 10:49:59;;;;;;;23.55;15.23;;;;;;;21.26;33.54;98812.34;4408571;32;20102;-82
2023/12/19 10:52:28;;;;;;;24.45;15.90;;;;;;;21.05;34.23;98818.25;4395276;32;20102;-82
2023/12/19 10:55:06;;;;;;;29.40;17.42;;;;;;;21.02;34.14;98807.09;4408928;32;20105;-83
2023/12/19 10:57:48;;;;;;;26.12;16.58;;;;;;;20.01;35.82;98795.97;4408670;32;20141;-83
2023/12/19 11:00:22;;;;;;;28.60;16.58;;;;;;;19.52;35.01;98791.41;4395014;32;20187;-82
2023/12/19 11:03:05;;;;;;;27.90;16.90;;;;;;;18.79;35.92;98794.50;4409479;32;20160;-83
2023/12/19 11:05:46;;;;;;;25.23;15.82;;;;;;;18.91;35.96;98786.78;4408802;32;20149;-80
2023/12/19 11:08:15;;;;;;;29.30;16.52;;;;;;;18.07;36.72;98790.31;4408878;32;20166;-81
2023/12/19 11:10:45;;;;;;;29.77;16.75;;;;;;;17.65;37.31;98778.03;4394405;32;20176;-81
2023/12/19 11:13:12;;;;;;;26.90;16.00;;;;;;;17.85;37.65;98775.09;4410461;32;20153;-81
2023/12/19 11:15:44;;;;;;;27.00;15.10;;;;;;;17.62;37.93;98773.03;4410719;32;20531;-83
2023/12/19 11:18:20;;;;;;;25.27;15.40;;;;;;;17.73;37.83;98767.19;4396889;32;20168;-81
2023/12/19 11:20:58;;;;;;;28.17;14.53;;;;;;;17.55;38.09;98764.75;4410813;32;20110;-79
2023/12/19 11:23:40;;;;;;;27.90;16.15;;;;;;;17.41;38.74;98748.22;4410724;32;20425;-80
2023/12/19 11:26:21;;;;;;;27.42;15.70;;;;;;;17.57;38.23;98755.03;4410291;32;20451;-79
2023/12/19 11:28:48;;;;;;;29.70;16.15;;;;;;;17.58;38.64;98761.94;4396444;32;20492;-80
2023/12/19 11:31:35;;;;;;;25.85;15.25;;;;;;;17.33;38.86;98759.09;4410519;32;20128;-79
2023/12/19 11:34:23;;;;;;;26.55;16.00;;;;;;;17.91;38.15;98761.69;4410714;32;20078;-80
2023/12/19 11:37:04;;;;;;;25.27;15.48;;;;;;;18.10;37.44;98760.56;4397122;32;20143;-79
2023/12/19 11:39:33;;;;;;;28.42;16.40;;;;;;;18.07;38.14;98758.97;4397051;32;20120;-81
2023/12/19 11:42:00;;;;;;;27.70;16.27;;;;;;;17.81;38.08;98751.91;4410443;32;20099;-83